sensor_id;sensor_type;location;lat;lon;timestamp;P1;durP1;ratioP1;P2;durP2;ratioP2
72891;SDS011;61032;50.782;6.818;2024-01-07T00:00:47;34.33;;;15.70;;
72891;SDS011;61032;50.782;6.818;2024-01-07T00:01:48;33.80;;;15.88;;
72891;SDS011;61032;50.782;6.818;2024-01-07T00:02:49;31.00;;;14.80;;
72891;SDS011;61032;50.782;6.818;2024-01-07T00:03:52;37.63;;;16.85;;
72891;SDS011;61032;50.782;6.818;2024-01-07T00:04:52;37.17;;;15.57;;
72891;SDS011;61032;50.782;6.818;2024-01-07T00:05:52;36.08;;;15.82;;
72891;SDS011;61032;50.782;6.818;2024-01-07T00:06:53;35.78;;;16.58;;
72891;SDS011;61032;50.782;6.818;2024-01-07T00:07:53;30.92;;;14.68;;
72891;SDS011;61032;50.782;6.818;2024-01-07T00:08:53;38.85;;;16.73;;
72891;SDS011;61032;50.782;6.818;2024-01-07T00:09:54;35.17;;;15.60;;
72891;SDS011;61032;50.782;6.818;2024-01-07T00:10:54;33.65;;;15.32;;
72891;SDS011;61032;50.782;6.818;2024-01-07T00:11:54;28.90;;;14.65;;
72891;SDS011;61032;50.782;6.818;2024-01-07T00:12:55;36.15;;;16.70;;
72891;SDS011;61032;50.782;6.818;2024-01-07T00:13:55;33.22;;;16.67;;
72891;SDS011;61032;50.782;6.818;2024-01-07T00:14:55;36.28;;;15.90;;
72891;SDS011;61032;50.782;6.818;2024-01-07T00:15:56;38.30;;;16.70;;
72891;SDS011;61032;50.782;6.818;2024-01-07T00:16:56;35.58;;;15.68;;
72891;SDS011;61032;50.782;6.818;2024-01-07T00:17:56;37.83;;;16.08;;
72891;SDS011;61032;50.782;6.818;2024-01-07T00:18:57;33.00;;;16.23;;
72891;SDS011;61032;50.782;6.818;2024-01-07T00:19:57;33.63;;;13.75;;
72891;SDS011;61032;50.782;6.818;2024-01-07T00:20:58;34.67;;;15.88;;
72891;SDS011;61032;50.782;6.818;2024-01-07T00:21:58;40.90;;;19.75;;
72891;SDS011;61032;50.782;6.818;2024-01-07T00:22:58;39.28;;;16.38;;
72891;SDS011;61032;50.782;6.818;2024-01-07T00:23:59;34.08;;;15.60;;
72891;SDS011;61032;50.782;6.818;2024-01-07T00:24:59;31.63;;;14.32;;
72891;SDS011;61032;50.782;6.818;2024-01-07T00:25:59;34.28;;;15.02;;
72891;SDS011;61032;50.782;6.818;2024-01-07T00:27:00;37.17;;;17.30;;
72891;SDS011;61032;50.782;6.818;2024-01-07T00:28:00;33.45;;;15.30;;
72891;SDS011;61032;50.782;6.818;2024-01-07T00:29:01;31.55;;;15.30;;
72891;SDS011;61032;50.782;6.818;2024-01-07T00:30:01;34.58;;;16.00;;
72891;SDS011;61032;50.782;6.818;2024-01-07T00:31:02;33.22;;;13.15;;
72891;SDS011;61032;50.782;6.818;2024-01-07T00:32:02;32.58;;;14.40;;
72891;SDS011;61032;50.782;6.818;2024-01-07T00:33:03;34.38;;;16.13;;
72891;SDS011;61032;50.782;6.818;2024-01-07T00:34:03;34.67;;;16.27;;
72891;SDS011;61032;50.782;6.818;2024-01-07T00:35:04;25.58;;;13.07;;
72891;SDS011;61032;50.782;6.818;2024-01-07T00:36:05;35.55;;;14.65;;
72891;SDS011;61032;50.782;6.818;2024-01-07T00:37:05;28.75;;;13.73;;
72891;SDS011;61032;50.782;6.818;2024-01-07T00:38:05;35.65;;;15.13;;
72891;SDS011;61032;50.782;6.818;2024-01-07T00:39:06;30.90;;;13.52;;
72891;SDS011;61032;50.782;6.818;2024-01-07T00:40:06;34.47;;;16.05;;
72891;SDS011;61032;50.782;6.818;2024-01-07T00:41:08;30.58;;;13.57;;
72891;SDS011;61032;50.782;6.818;2024-01-07T00:42:08;30.10;;;12.68;;
72891;SDS011;61032;50.782;6.818;2024-01-07T00:43:08;32.88;;;14.77;;
72891;SDS011;61032;50.782;6.818;2024-01-07T00:44:09;34.42;;;15.73;;
72891;SDS011;61032;50.782;6.818;2024-01-07T00:45:09;30.02;;;14.10;;
72891;SDS011;61032;50.782;6.818;2024-01-07T00:46:10;35.97;;;15.40;;
72891;SDS011;61032;50.782;6.818;2024-01-07T00:47:10;37.42;;;16.30;;
72891;SDS011;61032;50.782;6.818;2024-01-07T00:48:10;37.13;;;16.80;;
72891;SDS011;61032;50.782;6.818;2024-01-07T00:49:11;36.17;;;14.27;;
72891;SDS011;61032;50.782;6.818;2024-01-07T00:50:11;33.38;;;15.00;;
72891;SDS011;61032;50.782;6.818;2024-01-07T00:51:11;35.10;;;14.82;;
72891;SDS011;61032;50.782;6.818;2024-01-07T00:52:12;35.60;;;16.27;;
72891;SDS011;61032;50.782;6.818;2024-01-07T00:53:12;35.70;;;16.08;;
72891;SDS011;61032;50.782;6.818;2024-01-07T00:54:13;36.38;;;16.48;;
72891;SDS011;61032;50.782;6.818;2024-01-07T00:55:13;34.78;;;15.95;;
72891;SDS011;61032;50.782;6.818;2024-01-07T00:56:13;29.20;;;15.13;;
72891;SDS011;61032;50.782;6.818;2024-01-07T00:57:14;33.28;;;14.70;;
72891;SDS011;61032;50.782;6.818;2024-01-07T00:58:14;34.78;;;14.85;;
72891;SDS011;61032;50.782;6.818;2024-01-07T00:59:14;32.20;;;14.55;;
72891;SDS011;61032;50.782;6.818;2024-01-07T01:00:15;28.67;;;12.13;;
72891;SDS011;61032;50.782;6.818;2024-01-07T01:01:16;28.33;;;12.07;;
72891;SDS011;61032;50.782;6.818;2024-01-07T01:02:16;29.10;;;12.00;;
72891;SDS011;61032;50.782;6.818;2024-01-07T01:03:16;26.48;;;10.73;;
72891;SDS011;61032;50.782;6.818;2024-01-07T01:04:17;35.80;;;17.08;;
72891;SDS011;61032;50.782;6.818;2024-01-07T01:05:18;33.45;;;13.90;;
72891;SDS011;61032;50.782;6.818;2024-01-07T01:06:18;29.48;;;13.57;;
72891;SDS011;61032;50.782;6.818;2024-01-07T01:07:19;29.40;;;13.90;;
72891;SDS011;61032;50.782;6.818;2024-01-07T01:08:19;27.92;;;13.75;;
72891;SDS011;61032;50.782;6.818;2024-01-07T01:09:19;27.10;;;11.55;;
72891;SDS011;61032;50.782;6.818;2024-01-07T01:10:20;28.13;;;12.95;;
72891;SDS011;61032;50.782;6.818;2024-01-07T01:11:21;30.52;;;13.55;;
72891;SDS011;61032;50.782;6.818;2024-01-07T01:12:21;26.00;;;12.15;;
72891;SDS011;61032;50.782;6.818;2024-01-07T01:13:21;28.42;;;13.50;;
72891;SDS011;61032;50.782;6.818;2024-01-07T01:14:22;28.10;;;13.38;;
72891;SDS011;61032;50.782;6.818;2024-01-07T01:15:22;30.58;;;12.27;;
72891;SDS011;61032;50.782;6.818;2024-01-07T01:16:22;27.20;;;12.88;;
72891;SDS011;61032;50.782;6.818;2024-01-07T01:17:24;24.25;;;11.02;;
72891;SDS011;61032;50.782;6.818;2024-01-07T01:18:24;25.85;;;12.57;;
72891;SDS011;61032;50.782;6.818;2024-01-07T01:19:24;27.90;;;11.50;;
72891;SDS011;61032;50.782;6.818;2024-01-07T01:20:25;29.35;;;12.55;;
72891;SDS011;61032;50.782;6.818;2024-01-07T01:21:26;25.45;;;12.57;;
72891;SDS011;61032;50.782;6.818;2024-01-07T01:22:26;29.33;;;11.98;;
72891;SDS011;61032;50.782;6.818;2024-01-07T01:23:26;28.20;;;13.55;;
72891;SDS011;61032;50.782;6.818;2024-01-07T01:24:26;28.73;;;12.70;;
72891;SDS011;61032;50.782;6.818;2024-01-07T01:25:27;27.00;;;12.27;;
72891;SDS011;61032;50.782;6.818;2024-01-07T01:26:29;32.03;;;13.00;;
72891;SDS011;61032;50.782;6.818;2024-01-07T01:27:29;31.30;;;15.13;;
72891;SDS011;61032;50.782;6.818;2024-01-07T01:28:30;27.80;;;13.20;;
72891;SDS011;61032;50.782;6.818;2024-01-07T01:29:30;30.15;;;15.32;;
72891;SDS011;61032;50.782;6.818;2024-01-07T01:30:30;30.15;;;13.25;;
72891;SDS011;61032;50.782;6.818;2024-01-07T01:31:31;24.88;;;12.85;;
72891;SDS011;61032;50.782;6.818;2024-01-07T01:32:32;28.00;;;12.77;;
72891;SDS011;61032;50.782;6.818;2024-01-07T01:33:32;29.15;;;13.90;;
72891;SDS011;61032;50.782;6.818;2024-01-07T01:34:32;26.13;;;12.63;;
72891;SDS011;61032;50.782;6.818;2024-01-07T01:35:33;33.72;;;14.27;;
72891;SDS011;61032;50.782;6.818;2024-01-07T01:36:33;26.05;;;12.60;;
72891;SDS011;61032;50.782;6.818;2024-01-07T01:37:33;28.67;;;12.48;;
72891;SDS011;61032;50.782;6.818;2024-01-07T01:38:34;24.65;;;12.68;;
72891;SDS011;61032;50.782;6.818;2024-01-07T01:39:34;30.02;;;12.88;;
72891;SDS011;61032;50.782;6.818;2024-01-07T01:40:34;27.85;;;12.50;;
72891;SDS011;61032;50.782;6.818;2024-01-07T01:41:35;28.45;;;13.00;;
72891;SDS011;61032;50.782;6.818;2024-01-07T01:42:35;31.35;;;14.85;;
72891;SDS011;61032;50.782;6.818;2024-01-07T01:43:35;27.42;;;12.77;;
72891;SDS011;61032;50.782;6.818;2024-01-07T01:44:36;26.75;;;14.25;;
72891;SDS011;61032;50.782;6.818;2024-01-07T01:45:36;26.55;;;12.80;;
72891;SDS011;61032;50.782;6.818;2024-01-07T01:46:36;30.33;;;14.60;;
72891;SDS011;61032;50.782;6.818;2024-01-07T01:47:37;26.77;;;12.38;;
72891;SDS011;61032;50.782;6.818;2024-01-07T01:48:37;25.58;;;11.60;;
72891;SDS011;61032;50.782;6.818;2024-01-07T01:49:38;26.13;;;12.85;;
72891;SDS011;61032;50.782;6.818;2024-01-07T01:50:39;25.08;;;12.40;;
72891;SDS011;61032;50.782;6.818;2024-01-07T01:51:40;24.98;;;13.07;;
72891;SDS011;61032;50.782;6.818;2024-01-07T01:52:41;25.15;;;12.55;;
72891;SDS011;61032;50.782;6.818;2024-01-07T01:53:42;29.17;;;14.10;;
72891;SDS011;61032;50.782;6.818;2024-01-07T01:54:42;26.15;;;12.23;;
72891;SDS011;61032;50.782;6.818;2024-01-07T01:55:43;26.70;;;13.18;;
72891;SDS011;61032;50.782;6.818;2024-01-07T01:56:43;28.27;;;12.20;;
72891;SDS011;61032;50.782;6.818;2024-01-07T01:57:44;25.67;;;12.25;;
72891;SDS011;61032;50.782;6.818;2024-01-07T01:58:47;26.40;;;14.20;;
72891;SDS011;61032;50.782;6.818;2024-01-07T01:59:50;24.23;;;10.60;;
72891;SDS011;61032;50.782;6.818;2024-01-07T02:00:50;24.90;;;12.55;;
72891;SDS011;61032;50.782;6.818;2024-01-07T02:01:51;22.45;;;11.68;;
72891;SDS011;61032;50.782;6.818;2024-01-07T02:02:52;22.80;;;11.77;;
72891;SDS011;61032;50.782;6.818;2024-01-07T02:03:52;23.23;;;11.52;;
72891;SDS011;61032;50.782;6.818;2024-01-07T02:04:53;24.98;;;11.88;;
72891;SDS011;61032;50.782;6.818;2024-01-07T02:05:53;25.45;;;12.90;;
72891;SDS011;61032;50.782;6.818;2024-01-07T02:06:54;23.63;;;12.38;;
72891;SDS011;61032;50.782;6.818;2024-01-07T02:07:55;23.60;;;11.18;;
72891;SDS011;61032;50.782;6.818;2024-01-07T02:08:56;24.00;;;11.55;;
72891;SDS011;61032;50.782;6.818;2024-01-07T02:09:57;24.50;;;12.43;;
72891;SDS011;61032;50.782;6.818;2024-01-07T02:10:57;21.08;;;10.88;;
72891;SDS011;61032;50.782;6.818;2024-01-07T02:12:04;26.38;;;12.00;;
72891;SDS011;61032;50.782;6.818;2024-01-07T02:13:05;23.17;;;11.82;;
72891;SDS011;61032;50.782;6.818;2024-01-07T02:14:05;24.00;;;11.48;;
72891;SDS011;61032;50.782;6.818;2024-01-07T02:15:06;24.13;;;10.90;;
72891;SDS011;61032;50.782;6.818;2024-01-07T02:16:06;22.70;;;11.70;;
72891;SDS011;61032;50.782;6.818;2024-01-07T02:17:07;29.88;;;12.55;;
72891;SDS011;61032;50.782;6.818;2024-01-07T02:18:07;21.77;;;11.05;;
72891;SDS011;61032;50.782;6.818;2024-01-07T02:19:08;25.23;;;12.20;;
72891;SDS011;61032;50.782;6.818;2024-01-07T02:20:09;27.42;;;12.95;;
72891;SDS011;61032;50.782;6.818;2024-01-07T02:21:10;18.77;;;10.25;;
72891;SDS011;61032;50.782;6.818;2024-01-07T02:22:10;26.33;;;13.45;;
72891;SDS011;61032;50.782;6.818;2024-01-07T02:23:11;22.52;;;11.30;;
72891;SDS011;61032;50.782;6.818;2024-01-07T02:24:17;23.40;;;11.43;;
72891;SDS011;61032;50.782;6.818;2024-01-07T02:25:18;20.85;;;9.52;;
72891;SDS011;61032;50.782;6.818;2024-01-07T02:26:18;20.30;;;10.85;;
72891;SDS011;61032;50.782;6.818;2024-01-07T02:27:18;23.40;;;10.23;;
72891;SDS011;61032;50.782;6.818;2024-01-07T02:28:19;23.13;;;11.93;;
72891;SDS011;61032;50.782;6.818;2024-01-07T02:29:19;21.73;;;10.75;;
72891;SDS011;61032;50.782;6.818;2024-01-07T02:30:19;19.98;;;9.43;;
72891;SDS011;61032;50.782;6.818;2024-01-07T02:31:20;22.88;;;10.68;;
72891;SDS011;61032;50.782;6.818;2024-01-07T02:32:20;20.73;;;11.02;;
72891;SDS011;61032;50.782;6.818;2024-01-07T02:33:21;21.88;;;10.90;;
72891;SDS011;61032;50.782;6.818;2024-01-07T02:34:21;24.17;;;11.73;;
72891;SDS011;61032;50.782;6.818;2024-01-07T02:35:21;25.10;;;11.18;;
72891;SDS011;61032;50.782;6.818;2024-01-07T02:36:21;21.73;;;9.98;;
72891;SDS011;61032;50.782;6.818;2024-01-07T02:37:22;19.92;;;9.50;;
72891;SDS011;61032;50.782;6.818;2024-01-07T02:38:22;17.45;;;9.32;;
72891;SDS011;61032;50.782;6.818;2024-01-07T02:39:22;23.92;;;10.63;;
72891;SDS011;61032;50.782;6.818;2024-01-07T02:40:23;21.52;;;9.75;;
72891;SDS011;61032;50.782;6.818;2024-01-07T02:41:23;22.08;;;10.73;;
72891;SDS011;61032;50.782;6.818;2024-01-07T02:42:25;21.65;;;10.85;;
72891;SDS011;61032;50.782;6.818;2024-01-07T02:43:26;25.98;;;12.57;;
72891;SDS011;61032;50.782;6.818;2024-01-07T02:44:26;27.52;;;12.05;;
72891;SDS011;61032;50.782;6.818;2024-01-07T02:45:26;24.10;;;10.52;;
72891;SDS011;61032;50.782;6.818;2024-01-07T02:46:27;23.02;;;10.90;;
72891;SDS011;61032;50.782;6.818;2024-01-07T02:47:27;19.95;;;10.60;;
72891;SDS011;61032;50.782;6.818;2024-01-07T02:48:27;23.05;;;10.60;;
72891;SDS011;61032;50.782;6.818;2024-01-07T02:49:28;20.10;;;10.27;;
72891;SDS011;61032;50.782;6.818;2024-01-07T02:50:28;22.77;;;11.57;;
72891;SDS011;61032;50.782;6.818;2024-01-07T02:51:28;21.80;;;11.07;;
72891;SDS011;61032;50.782;6.818;2024-01-07T02:52:29;22.63;;;11.75;;
72891;SDS011;61032;50.782;6.818;2024-01-07T02:53:29;22.25;;;11.00;;
72891;SDS011;61032;50.782;6.818;2024-01-07T02:54:29;20.98;;;11.02;;
72891;SDS011;61032;50.782;6.818;2024-01-07T02:55:30;20.20;;;10.68;;
72891;SDS011;61032;50.782;6.818;2024-01-07T02:56:30;22.73;;;11.43;;
72891;SDS011;61032;50.782;6.818;2024-01-07T02:57:30;24.30;;;11.13;;
72891;SDS011;61032;50.782;6.818;2024-01-07T02:58:30;20.33;;;11.50;;
72891;SDS011;61032;50.782;6.818;2024-01-07T02:59:31;21.98;;;10.18;;
72891;SDS011;61032;50.782;6.818;2024-01-07T03:00:31;20.08;;;10.25;;
72891;SDS011;61032;50.782;6.818;2024-01-07T03:01:31;17.23;;;8.43;;
72891;SDS011;61032;50.782;6.818;2024-01-07T03:02:32;17.25;;;9.38;;
72891;SDS011;61032;50.782;6.818;2024-01-07T03:03:32;16.23;;;9.00;;
72891;SDS011;61032;50.782;6.818;2024-01-07T03:04:32;21.40;;;10.18;;
72891;SDS011;61032;50.782;6.818;2024-01-07T03:05:33;20.25;;;10.13;;
72891;SDS011;61032;50.782;6.818;2024-01-07T03:06:34;17.38;;;8.32;;
72891;SDS011;61032;50.782;6.818;2024-01-07T03:07:34;25.88;;;11.65;;
72891;SDS011;61032;50.782;6.818;2024-01-07T03:08:34;18.25;;;9.80;;
72891;SDS011;61032;50.782;6.818;2024-01-07T03:09:34;18.10;;;9.80;;
72891;SDS011;61032;50.782;6.818;2024-01-07T03:10:35;15.77;;;8.38;;
72891;SDS011;61032;50.782;6.818;2024-01-07T03:11:39;15.15;;;8.50;;
72891;SDS011;61032;50.782;6.818;2024-01-07T03:12:42;16.67;;;8.63;;
72891;SDS011;61032;50.782;6.818;2024-01-07T03:13:43;18.95;;;9.90;;
72891;SDS011;61032;50.782;6.818;2024-01-07T03:14:43;13.93;;;7.88;;
72891;SDS011;61032;50.782;6.818;2024-01-07T03:15:44;18.33;;;9.88;;
72891;SDS011;61032;50.782;6.818;2024-01-07T03:16:44;17.77;;;8.10;;
72891;SDS011;61032;50.782;6.818;2024-01-07T03:17:44;19.08;;;9.80;;
72891;SDS011;61032;50.782;6.818;2024-01-07T03:18:44;13.10;;;7.85;;
72891;SDS011;61032;50.782;6.818;2024-01-07T03:19:45;16.70;;;8.23;;
72891;SDS011;61032;50.782;6.818;2024-01-07T03:20:45;16.35;;;7.95;;
72891;SDS011;61032;50.782;6.818;2024-01-07T03:21:45;15.10;;;7.20;;
72891;SDS011;61032;50.782;6.818;2024-01-07T03:22:46;15.15;;;8.63;;
72891;SDS011;61032;50.782;6.818;2024-01-07T03:23:46;19.67;;;9.15;;
72891;SDS011;61032;50.782;6.818;2024-01-07T03:24:48;19.27;;;9.73;;
72891;SDS011;61032;50.782;6.818;2024-01-07T03:25:48;18.13;;;10.60;;
72891;SDS011;61032;50.782;6.818;2024-01-07T03:26:48;14.68;;;7.45;;
72891;SDS011;61032;50.782;6.818;2024-01-07T03:27:48;18.25;;;9.75;;
72891;SDS011;61032;50.782;6.818;2024-01-07T03:28:49;17.40;;;9.63;;
72891;SDS011;61032;50.782;6.818;2024-01-07T03:29:49;14.13;;;8.60;;
72891;SDS011;61032;50.782;6.818;2024-01-07T03:30:49;17.70;;;9.20;;
72891;SDS011;61032;50.782;6.818;2024-01-07T03:31:50;14.70;;;8.85;;
72891;SDS011;61032;50.782;6.818;2024-01-07T03:32:51;19.70;;;11.18;;
72891;SDS011;61032;50.782;6.818;2024-01-07T03:33:51;14.18;;;8.07;;
72891;SDS011;61032;50.782;6.818;2024-01-07T03:34:51;23.88;;;10.68;;
72891;SDS011;61032;50.782;6.818;2024-01-07T03:35:51;15.07;;;7.78;;
72891;SDS011;61032;50.782;6.818;2024-01-07T03:36:52;14.38;;;7.78;;
72891;SDS011;61032;50.782;6.818;2024-01-07T03:37:52;17.77;;;9.30;;
72891;SDS011;61032;50.782;6.818;2024-01-07T03:38:52;19.88;;;9.32;;
72891;SDS011;61032;50.782;6.818;2024-01-07T03:39:54;22.90;;;11.02;;
72891;SDS011;61032;50.782;6.818;2024-01-07T03:40:54;16.27;;;8.43;;
72891;SDS011;61032;50.782;6.818;2024-01-07T03:41:55;18.52;;;11.05;;
72891;SDS011;61032;50.782;6.818;2024-01-07T03:42:55;17.23;;;9.65;;
72891;SDS011;61032;50.782;6.818;2024-01-07T03:43:56;16.15;;;9.05;;
72891;SDS011;61032;50.782;6.818;2024-01-07T03:44:56;17.52;;;9.93;;
72891;SDS011;61032;50.782;6.818;2024-01-07T03:45:56;22.25;;;11.80;;
72891;SDS011;61032;50.782;6.818;2024-01-07T03:46:57;21.65;;;10.55;;
72891;SDS011;61032;50.782;6.818;2024-01-07T03:47:57;22.80;;;11.00;;
72891;SDS011;61032;50.782;6.818;2024-01-07T03:48:58;22.90;;;11.40;;
72891;SDS011;61032;50.782;6.818;2024-01-07T03:49:58;16.88;;;9.10;;
72891;SDS011;61032;50.782;6.818;2024-01-07T03:50:58;16.33;;;9.88;;
72891;SDS011;61032;50.782;6.818;2024-01-07T03:51:59;16.40;;;9.00;;
72891;SDS011;61032;50.782;6.818;2024-01-07T03:52:59;15.00;;;8.73;;
72891;SDS011;61032;50.782;6.818;2024-01-07T03:53:59;20.42;;;10.93;;
72891;SDS011;61032;50.782;6.818;2024-01-07T03:55:00;17.13;;;10.05;;
72891;SDS011;61032;50.782;6.818;2024-01-07T03:56:00;15.93;;;8.45;;
72891;SDS011;61032;50.782;6.818;2024-01-07T03:57:00;21.30;;;11.13;;
72891;SDS011;61032;50.782;6.818;2024-01-07T03:58:01;16.95;;;8.75;;
72891;SDS011;61032;50.782;6.818;2024-01-07T03:59:01;20.17;;;10.52;;
72891;SDS011;61032;50.782;6.818;2024-01-07T04:00:02;15.00;;;7.85;;
72891;SDS011;61032;50.782;6.818;2024-01-07T04:01:04;18.65;;;10.50;;
72891;SDS011;61032;50.782;6.818;2024-01-07T04:02:04;15.70;;;8.63;;
72891;SDS011;61032;50.782;6.818;2024-01-07T04:03:05;19.52;;;9.57;;
72891;SDS011;61032;50.782;6.818;2024-01-07T04:04:05;22.48;;;11.65;;
72891;SDS011;61032;50.782;6.818;2024-01-07T04:05:05;21.17;;;11.27;;
72891;SDS011;61032;50.782;6.818;2024-01-07T04:06:06;15.95;;;8.40;;
72891;SDS011;61032;50.782;6.818;2024-01-07T04:07:07;15.90;;;9.25;;
72891;SDS011;61032;50.782;6.818;2024-01-07T04:08:11;22.05;;;10.35;;
72891;SDS011;61032;50.782;6.818;2024-01-07T04:09:12;19.02;;;9.82;;
72891;SDS011;61032;50.782;6.818;2024-01-07T04:10:12;17.23;;;9.18;;
72891;SDS011;61032;50.782;6.818;2024-01-07T04:11:12;15.30;;;7.38;;
72891;SDS011;61032;50.782;6.818;2024-01-07T04:12:13;17.60;;;8.68;;
72891;SDS011;61032;50.782;6.818;2024-01-07T04:13:13;14.85;;;9.32;;
72891;SDS011;61032;50.782;6.818;2024-01-07T04:14:14;17.77;;;9.80;;
72891;SDS011;61032;50.782;6.818;2024-01-07T04:15:15;14.77;;;8.68;;
72891;SDS011;61032;50.782;6.818;2024-01-07T04:16:18;12.55;;;7.38;;
72891;SDS011;61032;50.782;6.818;2024-01-07T04:17:19;14.27;;;8.07;;
72891;SDS011;61032;50.782;6.818;2024-01-07T04:18:20;16.27;;;8.60;;
72891;SDS011;61032;50.782;6.818;2024-01-07T04:19:20;14.52;;;8.52;;
72891;SDS011;61032;50.782;6.818;2024-01-07T04:20:20;16.40;;;8.38;;
72891;SDS011;61032;50.782;6.818;2024-01-07T04:21:21;11.35;;;6.50;;
72891;SDS011;61032;50.782;6.818;2024-01-07T04:22:21;12.35;;;8.13;;
72891;SDS011;61032;50.782;6.818;2024-01-07T04:23:21;16.38;;;8.13;;
72891;SDS011;61032;50.782;6.818;2024-01-07T04:24:22;17.77;;;9.45;;
72891;SDS011;61032;50.782;6.818;2024-01-07T04:25:22;15.88;;;9.15;;
72891;SDS011;61032;50.782;6.818;2024-01-07T04:26:25;16.33;;;8.77;;
72891;SDS011;61032;50.782;6.818;2024-01-07T04:27:25;16.00;;;8.20;;
72891;SDS011;61032;50.782;6.818;2024-01-07T04:28:26;14.63;;;7.80;;
72891;SDS011;61032;50.782;6.818;2024-01-07T04:29:26;13.30;;;7.90;;
72891;SDS011;61032;50.782;6.818;2024-01-07T04:30:27;18.92;;;8.95;;
72891;SDS011;61032;50.782;6.818;2024-01-07T04:31:27;15.32;;;10.68;;
72891;SDS011;61032;50.782;6.818;2024-01-07T04:32:28;17.08;;;9.52;;
72891;SDS011;61032;50.782;6.818;2024-01-07T04:33:28;16.00;;;9.20;;
72891;SDS011;61032;50.782;6.818;2024-01-07T04:34:28;15.68;;;8.40;;
72891;SDS011;61032;50.782;6.818;2024-01-07T04:35:29;25.70;;;12.50;;
72891;SDS011;61032;50.782;6.818;2024-01-07T04:36:29;17.75;;;9.02;;
72891;SDS011;61032;50.782;6.818;2024-01-07T04:37:29;17.42;;;10.07;;
72891;SDS011;61032;50.782;6.818;2024-01-07T04:38:30;14.68;;;8.55;;
72891;SDS011;61032;50.782;6.818;2024-01-07T04:39:30;13.30;;;8.57;;
72891;SDS011;61032;50.782;6.818;2024-01-07T04:40:30;14.05;;;8.60;;
72891;SDS011;61032;50.782;6.818;2024-01-07T04:41:31;18.83;;;8.68;;
72891;SDS011;61032;50.782;6.818;2024-01-07T04:42:31;13.02;;;8.35;;
72891;SDS011;61032;50.782;6.818;2024-01-07T04:43:31;21.35;;;11.45;;
72891;SDS011;61032;50.782;6.818;2024-01-07T04:44:31;13.10;;;8.02;;
72891;SDS011;61032;50.782;6.818;2024-01-07T04:45:32;20.02;;;11.57;;
72891;SDS011;61032;50.782;6.818;2024-01-07T04:46:41;19.25;;;9.43;;
72891;SDS011;61032;50.782;6.818;2024-01-07T04:47:41;14.52;;;8.40;;
72891;SDS011;61032;50.782;6.818;2024-01-07T04:48:42;17.70;;;9.40;;
72891;SDS011;61032;50.782;6.818;2024-01-07T04:49:42;14.65;;;8.30;;
72891;SDS011;61032;50.782;6.818;2024-01-07T04:50:42;14.75;;;7.45;;
72891;SDS011;61032;50.782;6.818;2024-01-07T04:51:43;15.65;;;8.52;;
72891;SDS011;61032;50.782;6.818;2024-01-07T04:52:43;13.80;;;6.90;;
72891;SDS011;61032;50.782;6.818;2024-01-07T04:53:43;13.82;;;7.97;;
72891;SDS011;61032;50.782;6.818;2024-01-07T04:54:43;13.85;;;7.47;;
72891;SDS011;61032;50.782;6.818;2024-01-07T04:55:44;12.50;;;7.20;;
72891;SDS011;61032;50.782;6.818;2024-01-07T04:56:44;17.48;;;10.07;;
72891;SDS011;61032;50.782;6.818;2024-01-07T04:57:44;18.00;;;10.10;;
72891;SDS011;61032;50.782;6.818;2024-01-07T04:58:45;19.77;;;10.38;;
72891;SDS011;61032;50.782;6.818;2024-01-07T04:59:46;24.92;;;12.63;;
72891;SDS011;61032;50.782;6.818;2024-01-07T05:00:46;20.83;;;11.25;;
72891;SDS011;61032;50.782;6.818;2024-01-07T05:01:47;16.15;;;8.30;;
72891;SDS011;61032;50.782;6.818;2024-01-07T05:02:47;17.70;;;9.70;;
72891;SDS011;61032;50.782;6.818;2024-01-07T05:03:47;16.17;;;8.73;;
72891;SDS011;61032;50.782;6.818;2024-01-07T05:04:48;20.05;;;10.30;;
72891;SDS011;61032;50.782;6.818;2024-01-07T05:05:48;21.27;;;11.70;;
72891;SDS011;61032;50.782;6.818;2024-01-07T05:06:48;15.90;;;9.57;;
72891;SDS011;61032;50.782;6.818;2024-01-07T05:07:50;19.50;;;9.65;;
72891;SDS011;61032;50.782;6.818;2024-01-07T05:08:50;19.48;;;10.30;;
72891;SDS011;61032;50.782;6.818;2024-01-07T05:09:50;19.30;;;10.10;;
72891;SDS011;61032;50.782;6.818;2024-01-07T05:10:50;15.00;;;9.05;;
72891;SDS011;61032;50.782;6.818;2024-01-07T05:11:51;21.42;;;10.70;;
72891;SDS011;61032;50.782;6.818;2024-01-07T05:12:51;19.23;;;8.57;;
72891;SDS011;61032;50.782;6.818;2024-01-07T05:13:51;15.07;;;9.00;;
72891;SDS011;61032;50.782;6.818;2024-01-07T05:14:52;18.55;;;9.27;;
72891;SDS011;61032;50.782;6.818;2024-01-07T05:15:52;17.50;;;9.77;;
72891;SDS011;61032;50.782;6.818;2024-01-07T05:16:56;16.52;;;9.50;;
72891;SDS011;61032;50.782;6.818;2024-01-07T05:17:56;22.40;;;10.88;;
72891;SDS011;61032;50.782;6.818;2024-01-07T05:18:56;20.90;;;11.07;;
72891;SDS011;61032;50.782;6.818;2024-01-07T05:19:57;17.30;;;10.90;;
72891;SDS011;61032;50.782;6.818;2024-01-07T05:20:57;19.85;;;9.75;;
72891;SDS011;61032;50.782;6.818;2024-01-07T05:21:58;15.98;;;9.13;;
72891;SDS011;61032;50.782;6.818;2024-01-07T05:22:58;21.23;;;11.55;;
72891;SDS011;61032;50.782;6.818;2024-01-07T05:23:59;16.35;;;8.75;;
72891;SDS011;61032;50.782;6.818;2024-01-07T05:24:59;14.52;;;8.88;;
72891;SDS011;61032;50.782;6.818;2024-01-07T05:26:00;16.05;;;8.80;;
72891;SDS011;61032;50.782;6.818;2024-01-07T05:27:00;22.23;;;12.05;;
72891;SDS011;61032;50.782;6.818;2024-01-07T05:28:01;19.25;;;9.90;;
72891;SDS011;61032;50.782;6.818;2024-01-07T05:29:01;15.48;;;8.20;;
72891;SDS011;61032;50.782;6.818;2024-01-07T05:30:02;22.58;;;12.55;;
72891;SDS011;61032;50.782;6.818;2024-01-07T05:31:02;19.55;;;9.90;;
72891;SDS011;61032;50.782;6.818;2024-01-07T05:32:03;15.85;;;9.40;;
72891;SDS011;61032;50.782;6.818;2024-01-07T05:33:04;14.82;;;8.68;;
72891;SDS011;61032;50.782;6.818;2024-01-07T05:34:04;18.17;;;9.65;;
72891;SDS011;61032;50.782;6.818;2024-01-07T05:35:05;23.50;;;10.82;;
72891;SDS011;61032;50.782;6.818;2024-01-07T05:36:05;16.42;;;9.43;;
72891;SDS011;61032;50.782;6.818;2024-01-07T05:37:06;20.67;;;10.27;;
72891;SDS011;61032;50.782;6.818;2024-01-07T05:38:06;25.42;;;12.93;;
72891;SDS011;61032;50.782;6.818;2024-01-07T05:39:06;18.67;;;9.88;;
72891;SDS011;61032;50.782;6.818;2024-01-07T05:40:07;18.92;;;10.23;;
72891;SDS011;61032;50.782;6.818;2024-01-07T05:41:08;19.17;;;9.80;;
72891;SDS011;61032;50.782;6.818;2024-01-07T05:42:08;17.92;;;10.27;;
72891;SDS011;61032;50.782;6.818;2024-01-07T05:43:08;16.60;;;9.30;;
72891;SDS011;61032;50.782;6.818;2024-01-07T05:44:09;20.95;;;9.90;;
72891;SDS011;61032;50.782;6.818;2024-01-07T05:45:09;18.20;;;11.15;;
72891;SDS011;61032;50.782;6.818;2024-01-07T05:46:10;16.52;;;9.20;;
72891;SDS011;61032;50.782;6.818;2024-01-07T05:47:12;18.30;;;8.40;;
72891;SDS011;61032;50.782;6.818;2024-01-07T05:48:12;14.98;;;9.23;;
72891;SDS011;61032;50.782;6.818;2024-01-07T05:49:12;19.83;;;10.30;;
72891;SDS011;61032;50.782;6.818;2024-01-07T05:50:12;19.50;;;9.55;;
72891;SDS011;61032;50.782;6.818;2024-01-07T05:51:16;16.52;;;9.07;;
72891;SDS011;61032;50.782;6.818;2024-01-07T05:52:16;20.02;;;11.70;;
72891;SDS011;61032;50.782;6.818;2024-01-07T05:53:17;16.90;;;9.52;;
72891;SDS011;61032;50.782;6.818;2024-01-07T05:54:17;18.65;;;10.63;;
72891;SDS011;61032;50.782;6.818;2024-01-07T05:55:17;16.92;;;9.82;;
72891;SDS011;61032;50.782;6.818;2024-01-07T05:56:18;24.02;;;11.65;;